Details From KRIC - Richmond Intl
To KCXE - CHASE CITY MUNI
Flight Number -
Tags decoded
Created
Modified
Stats Distance 89 nm / 165 km
Max Altitude 0 ft / 0 m
Waypoints 4
Social Downloads 1
Likes 0
Share

Download

Looking for another format? Having issues loading an existing format? Contact us
Advertisement - Login to hide

Notes

Requested: KRIC FILOV GELYE KCXE

Route

KRIC FILOV GELYE KCXE

ID Type Via Altitude (ft/m) Position (lat/lon) Dist (leg/tot) Name
O KRIC APT - 0 / 0 37.50473 / -77.32011 - / 0 nm Richmond Intl
FILOV FIX - 0 / 0 36.60090 / -78.47966 77 / 77 nm
GELYE FIX - 0 / 0 36.70181 / -78.49143 6 / 83 nm
O KCXE APT - 0 / 0 36.78832 / -78.50155 5 / 88 nm CHASE CITY MUNI

Altitude Profile

Advertisement - Login to hide

KRIC

Details ICAO KRIC (RIC)
Name Richmond Intl
Region United States
Timezone America/New_York (UTC-4.0)
Stats Elevation 168 ft / 51 m (AMSL)
Location 37.504700° -77.320200°
Runways 3
Magnetic Variation 10.453° W

METAR

KRIC 241054Z 00000KT 10SM SCT080 20/18 A3012 RMK AO2 SLP202 T02000183

Decode

TAF

TAF KRIC 240520Z 2406/2506 VRB03KT P6SM SCT070 FM241200 VRB04KT P6SM BKN060 FM241700 16008KT P6SM SCT060

Decode

Departure Runways

ID Width Length Bearing (true/mag) Surface Threshold Overrun Markings Lighting
02 150 ft / 46 m 6,620 ft / 2,018 m 13.41° / 23.86° ASPHALT 0 ft / 0 m 200 ft / 61 m PREC-APP EDGE THRESHOLD MALSR REIL-OMNI
07 100 ft / 30 m 5,180 ft / 1,579 m 57.36° / 67.81° ASPHALT 0 ft / 0 m 190 ft / 58 m APP EDGE THRESHOLD
16 150 ft / 46 m 9,012 ft / 2,747 m 147.57° / 158.02° ASPHALT 0 ft / 0 m 1,004 ft / 306 m PREC-APP CENTERLINE EDGE THRESHOLD MALSR REIL-OMNI
20 150 ft / 46 m 6,620 ft / 2,018 m 193.41° / 203.87° ASPHALT 0 ft / 0 m 276 ft / 84 m PREC-APP EDGE THRESHOLD REIL-OMNI
25 100 ft / 30 m 5,180 ft / 1,579 m 237.37° / 247.82° ASPHALT 0 ft / 0 m 0 ft / 0 m APP EDGE THRESHOLD REIL-OMNI
34 150 ft / 46 m 9,012 ft / 2,747 m 327.58° / 338.03° ASPHALT 0 ft / 0 m 994 ft / 303 m PREC-APP CENTERLINE EDGE THRESHOLD ALSF-II TDZ REIL-OMNI

KCXE

Details ICAO KCXE
Name CHASE CITY MUNI
Region United States
Timezone America/New_York (UTC-4.0)
Stats Elevation 503 ft / 153 m (AMSL)
Location 36.788300° -78.501500°
Runways 1
Magnetic Variation 9.647° W

METAR

KCXE 241135Z AUTO 14003KT 10SM CLR 21/19 A3012 RMK AO1 T02090189

Decode

TAF

Not found

Destination Runways

ID Width Length Bearing (true/mag) Surface Threshold Overrun Markings Lighting
18 50 ft / 15 m 3,407 ft / 1,039 m 174.64° / 184.29° ASPHALT 0 ft / 0 m 0 ft / 0 m APP EDGE THRESHOLD
36 50 ft / 15 m 3,407 ft / 1,039 m 354.64° / 4.29° ASPHALT 0 ft / 0 m 0 ft / 0 m APP EDGE THRESHOLD

Popular Alternatives